Time;durP1;ratioP1;P1;durP2;ratioP2;P2;SDS_P1;SDS_P2;PMS_P1;PMS_P2;Temp;Humidity;BMP_temperature;BMP_pressure;BME280_temperature;BME280_humidity;BME280_pressure;Samples;Min_cycle;Max_cycle;Signal;HPM_P1;HPM_P2
2023/01/08 00:01:37;;;;;;;2.02;1.55;;;;;;;-7.41;62.65;102719.79;1881385;75;21017;-47
2023/01/08 00:04:05;;;;;;;5.15;2.08;;;;;;;-7.44;62.67;102731.09;1912528;74;21023;-48
2023/01/08 00:06:34;;;;;;;4.22;2.25;;;;;;;-7.46;62.67;102739.06;1923226;74;21065;-47
2023/01/08 00:09:03;;;;;;;2.40;1.40;;;;;;;-7.47;62.67;102728.35;1881287;75;21037;-51
2023/01/08 00:11:31;;;;;;;2.62;1.50;;;;;;;-7.46;62.73;102736.91;1879134;75;21111;-48
2023/01/08 00:14:00;;;;;;;1.35;0.98;;;;;;;-7.40;62.74;102736.91;1878205;76;21049;-48
2023/01/08 00:16:29;;;;;;;1.98;1.07;;;;;;;-7.40;62.69;102736.91;1878173;76;21025;-47
2023/01/08 00:18:58;;;;;;;2.35;1.05;;;;;;;-7.37;62.76;102743.52;1879018;75;21026;-47
2023/01/08 00:21:27;;;;;;;6.40;3.47;;;;;;;-7.34;62.75;102743.22;1916661;74;21195;-51
2023/01/08 00:23:55;;;;;;;2.40;1.80;;;;;;;-7.32;62.76;102742.92;1943639;74;21020;-52
2023/01/08 00:26:24;;;;;;;16.87;4.90;;;;;;;-7.34;62.78;102740.66;1944347;74;21027;-48
2023/01/08 00:28:53;;;;;;;4.28;2.77;;;;;;;-7.34;62.82;102736.82;1944298;74;21556;-52
2023/01/08 00:31:22;;;;;;;6.00;2.92;;;;;;;-7.38;62.87;102744.31;1944266;74;21011;-53
2023/01/08 00:33:50;;;;;;;5.33;1.57;;;;;;;-7.43;62.98;102745.68;1944228;74;21031;-53
2023/01/08 00:36:19;;;;;;;5.40;2.10;;;;;;;-7.42;63.02;102751.27;1944270;74;20984;-53
2023/01/08 00:38:48;;;;;;;5.62;2.45;;;;;;;-7.43;63.04;102746.95;1924657;74;21539;-53
2023/01/08 00:41:17;;;;;;;5.03;1.90;;;;;;;-7.45;63.02;102743.41;1907931;75;21134;-51
2023/01/08 00:43:46;;;;;;;1.52;1.42;;;;;;;-7.44;62.99;102741.33;1909645;75;20990;-48
2023/01/08 00:46:15;;;;;;;6.37;3.02;;;;;;;-7.46;63.01;102742.91;1877300;76;21073;-49
2023/01/08 00:48:44;;;;;;;10.72;4.53;;;;;;;-7.49;63.07;102749.09;1877074;76;21029;-51
2023/01/08 00:51:12;;;;;;;1.55;1.37;;;;;;;-7.54;63.16;102741.52;1877246;76;21170;-48
2023/01/08 00:53:41;;;;;;;3.55;2.27;;;;;;;-7.54;63.16;102737.69;1877269;76;21040;-51
2023/01/08 00:56:11;;;;;;;6.83;2.92;;;;;;;-7.56;63.18;102736.70;1880189;75;21112;-50
2023/01/08 00:58:39;;;;;;;12.18;2.62;;;;;;;-7.59;63.21;102744.16;1909648;75;21007;-50
2023/01/08 01:01:13;;;;;;;5.37;2.00;;;;;;;-7.63;63.24;102742.19;1909462;75;21107;-52
2023/01/08 01:03:42;;;;;;;4.42;2.05;;;;;;;-7.64;63.30;102733.59;1909762;75;21016;-52
2023/01/08 01:06:12;;;;;;;6.05;3.87;;;;;;;-7.59;63.30;102736.48;1909645;75;21081;-49
2023/01/08 01:08:43;;;;;;;4.90;3.15;;;;;;;-7.58;63.34;102734.03;1909630;75;21749;-48
2023/01/08 01:11:14;;;;;;;5.53;2.83;;;;;;;-7.58;63.36;102735.67;1909600;75;21092;-53
2023/01/08 01:13:43;;;;;;;3.00;2.10;;;;;;;-7.61;63.39;102737.66;1909513;74;21481;-51
2023/01/08 01:16:11;;;;;;;3.10;2.05;;;;;;;-7.57;63.41;102737.47;1909640;75;21079;-53
2023/01/08 01:18:40;;;;;;;2.20;2.00;;;;;;;-7.56;63.45;102734.14;1909620;75;21072;-54
2023/01/08 01:21:21;;;;;;;9.10;3.40;;;;;;;-7.60;63.44;102733.41;1909615;75;21505;-53
2023/01/08 01:23:49;;;;;;;7.45;2.65;;;;;;;-7.62;63.51;102728.59;1909519;75;21086;-53
2023/01/08 01:26:21;;;;;;;4.67;1.62;;;;;;;-7.68;63.47;102725.63;1909456;75;21018;-52
2023/01/08 01:28:51;;;;;;;1.32;1.02;;;;;;;-7.74;63.50;102718.84;1909646;75;21039;-52
2023/01/08 01:31:20;;;;;;;11.78;4.75;;;;;;;-7.72;63.56;102721.10;1909690;75;22417;-52
2023/01/08 01:33:51;;;;;;;5.17;2.55;;;;;;;-7.73;63.57;102723.15;1891600;75;21440;-52
2023/01/08 01:36:26;;;;;;;5.92;2.45;;;;;;;-7.77;63.58;102713.10;1877294;76;21014;-53
2023/01/08 01:38:54;;;;;;;6.53;2.62;;;;;;;-7.80;63.60;102717.63;1876848;76;21116;-53
2023/01/08 01:41:35;;;;;;;3.58;1.90;;;;;;;-7.84;63.62;102714.37;1891585;76;21185;-53
2023/01/08 01:44:40;;;;;;;5.92;3.70;;;;;;;-7.90;63.70;102719.05;1892252;75;21065;-51
2023/01/08 01:47:11;;;;;;;4.62;2.33;;;;;;;-7.91;63.80;102721.14;1892276;76;21020;-56
2023/01/08 01:49:43;;;;;;;5.25;3.85;;;;;;;-7.90;63.79;102720.73;1892344;76;21082;-50
2023/01/08 01:52:12;;;;;;;6.70;4.67;;;;;;;-7.96;63.87;102723.77;1892409;76;21110;-52
2023/01/08 01:54:41;;;;;;;2.77;2.58;;;;;;;-8.01;63.92;102725.11;1892447;76;21060;-53
2023/01/08 01:57:10;;;;;;;3.62;2.33;;;;;;;-8.04;63.99;102727.45;1916054;74;21002;-49
2023/01/08 01:59:39;;;;;;;9.35;3.20;;;;;;;-8.05;64.05;102730.80;1925326;74;21519;-50
2023/01/08 02:02:08;;;;;;;2.85;1.95;;;;;;;-8.01;64.07;102727.67;1946728;73;21042;-56
2023/01/08 02:04:37;;;;;;;1.85;1.02;;;;;;;-8.05;64.06;102723.14;1959553;73;21446;-54
2023/01/08 02:07:14;;;;;;;16.35;4.28;;;;;;;-8.08;64.09;102723.80;1959565;73;21058;-48
2023/01/08 02:09:58;;;;;;;4.85;3.45;;;;;;;-8.10;64.09;102728.31;1959274;73;21007;-49
2023/01/08 02:12:32;;;;;;;14.10;3.92;;;;;;;-8.13;64.15;102731.92;1958550;73;21053;-49
2023/01/08 02:15:06;;;;;;;4.15;2.47;;;;;;;-8.15;64.10;102745.91;1959633;73;21519;-52
2023/01/08 02:18:00;;;;;;;11.57;5.15;;;;;;;-8.19;64.12;102745.17;1959606;73;21148;-50
2023/01/08 02:20:32;;;;;;;8.23;3.10;;;;;;;-8.25;64.08;102753.30;1958601;73;21482;-51
2023/01/08 02:23:09;;;;;;;10.88;3.85;;;;;;;-8.28;64.08;102749.64;1959638;73;21406;-50
2023/01/08 02:25:57;;;;;;;10.93;3.20;;;;;;;-8.32;64.14;102750.22;1959145;73;21171;-49
2023/01/08 02:28:27;;;;;;;13.62;3.70;;;;;;;-8.36;64.19;102750.39;1959573;73;21062;-49
2023/01/08 02:30:57;;;;;;;5.28;2.72;;;;;;;-8.45;64.25;102749.38;1959472;73;21074;-50
2023/01/08 02:33:29;;;;;;;4.65;2.98;;;;;;;-8.48;64.23;102747.00;1946069;73;21460;-51
2023/01/08 02:36:17;;;;;;;6.72;2.85;;;;;;;-8.51;64.17;102744.25;1925492;74;21039;-50
2023/01/08 02:39:06;;;;;;;11.30;4.72;;;;;;;-8.56;64.21;102743.54;1935094;73;21554;-50
2023/01/08 02:41:41;;;;;;;8.68;2.50;;;;;;;-8.62;64.26;102749.47;1887606;75;21129;-49
2023/01/08 02:44:11;;;;;;;14.58;6.10;;;;;;;-8.73;64.36;102738.87;1908913;75;21538;-49
2023/01/08 02:46:42;;;;;;;9.83;5.62;;;;;;;-8.82;64.42;102737.82;1895626;75;21230;-53
2023/01/08 02:49:13;;;;;;;3.20;2.62;;;;;;;-8.88;64.43;102746.73;1935808;74;21110;-53
2023/01/08 02:51:45;;;;;;;9.00;4.50;;;;;;;-8.97;64.49;102741.44;1897045;74;21021;-48
2023/01/08 02:54:16;;;;;;;13.32;5.95;;;;;;;-9.05;64.62;102750.22;1877478;75;21112;-47
2023/01/08 02:56:48;;;;;;;14.47;4.78;;;;;;;-9.09;64.63;102757.52;1877181;76;21029;-48
2023/01/08 02:59:19;;;;;;;5.45;2.67;;;;;;;-9.17;64.66;102757.84;1899364;75;21543;-47
2023/01/08 03:01:48;;;;;;;8.43;3.62;;;;;;;-9.20;64.76;102758.00;1909562;75;21097;-47
2023/01/08 03:04:20;;;;;;;13.08;4.67;;;;;;;-9.22;64.75;102763.02;1909568;75;21018;-48
2023/01/08 03:06:49;;;;;;;13.45;5.85;;;;;;;-9.26;64.79;102762.67;1906855;72;20993;-46
2023/01/08 03:09:19;;;;;;;8.30;3.92;;;;;;;-9.32;64.80;102770.36;1900065;75;21538;-53
2023/01/08 03:11:59;;;;;;;14.13;5.03;;;;;;;-9.36;64.78;102772.19;1896681;74;21094;-52
2023/01/08 03:14:34;;;;;;;17.50;4.67;;;;;;;-9.42;64.72;102776.84;1943276;74;21156;-49
2023/01/08 03:17:05;;;;;;;9.20;3.05;;;;;;;-9.51;64.83;102778.31;1942275;74;21023;-52
2023/01/08 03:19:40;;;;;;;12.25;4.55;;;;;;;-9.59;64.90;102784.88;1910495;73;21082;-52
2023/01/08 03:22:11;;;;;;;6.08;3.10;;;;;;;-9.67;64.96;102789.79;1909466;75;21088;-51
2023/01/08 03:24:42;;;;;;;11.73;5.40;;;;;;;-9.71;65.01;102802.30;1909720;75;21494;-52
2023/01/08 03:27:14;;;;;;;3.80;2.55;;;;;;;-9.78;65.17;102801.72;1909449;75;21167;-53
2023/01/08 03:29:44;;;;;;;11.12;3.90;;;;;;;-9.83;65.27;102806.48;1907177;75;21178;-50
2023/01/08 03:32:16;;;;;;;13.03;4.85;;;;;;;-9.86;65.32;102799.86;1899870;75;20982;-53
2023/01/08 03:34:47;;;;;;;18.75;5.47;;;;;;;-9.89;65.36;102811.08;1923993;74;21004;-48
2023/01/08 03:37:18;;;;;;;13.93;5.28;;;;;;;-9.87;65.34;102813.36;1917239;74;21095;-52
2023/01/08 03:39:53;;;;;;;6.83;3.45;;;;;;;-9.83;65.36;102809.03;1877087;76;21334;-52
2023/01/08 03:42:23;;;;;;;10.05;4.15;;;;;;;-9.80;65.29;102809.24;1850645;76;21540;-49
2023/01/08 03:44:52;;;;;;;14.47;4.78;;;;;;;-9.78;65.23;102806.42;1846276;76;21180;-55
2023/01/08 03:47:22;;;;;;;7.75;3.75;;;;;;;-9.79;65.17;102805.94;1844715;78;21112;-53
2023/01/08 03:49:53;;;;;;;8.15;4.50;;;;;;;-9.80;65.14;102804.54;1844807;78;21128;-55
2023/01/08 03:52:27;;;;;;;8.48;3.50;;;;;;;-9.80;65.17;102810.52;1845566;78;21133;-51
2023/01/08 03:54:56;;;;;;;4.72;2.08;;;;;;;-9.79;65.22;102812.31;1876005;76;21069;-52
2023/01/08 03:57:25;;;;;;;8.20;3.45;;;;;;;-9.79;65.28;102813.59;1876991;76;21457;-51
2023/01/08 03:59:54;;;;;;;3.27;2.98;;;;;;;-9.79;65.30;102815.22;1877144;76;21450;-52
2023/01/08 04:02:23;;;;;;;4.75;2.12;;;;;;;-9.78;65.28;102824.66;1877022;76;21062;-52
2023/01/08 04:04:51;;;;;;;7.33;2.77;;;;;;;-9.83;65.25;102824.33;1851900;76;21199;-52
2023/01/08 04:07:20;;;;;;;12.30;4.05;;;;;;;-9.85;65.30;102827.50;1845503;78;21046;-52
2023/01/08 04:09:49;;;;;;;11.40;3.58;;;;;;;-9.88;65.30;102824.70;1845498;78;21108;-53
2023/01/08 04:12:17;;;;;;;10.32;4.65;;;;;;;-9.89;65.33;102822.55;1845506;78;21239;-50
2023/01/08 04:14:46;;;;;;;8.25;3.05;;;;;;;-9.89;65.37;102825.10;1864066;76;21101;-50
2023/01/08 04:17:15;;;;;;;11.88;3.95;;;;;;;-9.85;65.36;102833.48;1876946;76;21610;-53
2023/01/08 04:19:44;;;;;;;11.70;6.05;;;;;;;-9.83;65.30;102835.80;1877124;76;21042;-53
2023/01/08 04:22:12;;;;;;;18.30;3.92;;;;;;;-9.83;65.23;102839.63;1877011;76;21071;-52
2023/01/08 04:24:41;;;;;;;7.25;4.05;;;;;;;-9.87;65.14;102840.13;1866517;76;21086;-48
2023/01/08 04:27:10;;;;;;;3.87;2.17;;;;;;;-9.94;65.09;102842.97;1845636;78;21165;-48
2023/01/08 04:29:38;;;;;;;5.95;3.08;;;;;;;-10.02;65.08;102847.47;1845527;78;21187;-49
2023/01/08 04:32:07;;;;;;;6.83;2.45;;;;;;;-10.13;65.06;102847.02;1845583;78;21054;-47
2023/01/08 04:34:36;;;;;;;13.80;5.17;;;;;;;-10.21;65.05;102846.42;1848569;76;21667;-54
2023/01/08 04:37:04;;;;;;;23.35;6.28;;;;;;;-10.29;65.05;102844.55;1877163;76;21148;-53
2023/01/08 04:39:33;;;;;;;6.45;2.50;;;;;;;-10.37;65.10;102845.60;1877183;76;21066;-52
2023/01/08 04:42:02;;;;;;;11.22;1.90;;;;;;;-10.41;65.10;102845.25;1877107;74;21106;-49
2023/01/08 04:44:30;;;;;;;2.58;1.82;;;;;;;-10.42;65.05;102844.38;1877053;76;21667;-53
2023/01/08 04:46:59;;;;;;;7.55;2.58;;;;;;;-10.46;65.00;102841.44;1874834;76;21160;-53
2023/01/08 04:49:27;;;;;;;9.48;2.62;;;;;;;-10.52;65.12;102840.17;1862726;76;21073;-53
2023/01/08 04:51:56;;;;;;;22.48;8.08;;;;;;;-10.59;65.21;102843.00;1847271;76;21053;-53
2023/01/08 04:54:25;;;;;;;12.55;5.53;;;;;;;-10.64;65.30;102851.95;1869258;76;21042;-55
2023/01/08 04:56:54;;;;;;;10.32;3.60;;;;;;;-10.67;65.33;102858.05;1849132;76;21026;-53
2023/01/08 04:59:22;;;;;;;5.83;3.15;;;;;;;-10.69;65.37;102857.04;1845580;78;21104;-53
2023/01/08 05:01:51;;;;;;;7.65;4.00;;;;;;;-10.69;65.37;102862.13;1845621;78;21042;-52
2023/01/08 05:04:20;;;;;;;9.95;4.28;;;;;;;-10.72;65.35;102859.33;1862676;76;21169;-52
2023/01/08 05:06:48;;;;;;;1.80;1.65;;;;;;;-10.74;65.38;102863.41;1877136;76;21102;-53
2023/01/08 05:09:17;;;;;;;3.55;1.70;;;;;;;-10.76;65.37;102864.55;1877119;76;21053;-52
2023/01/08 05:11:46;;;;;;;3.30;2.15;;;;;;;-10.81;65.37;102864.94;1877135;76;21055;-52
2023/01/08 05:14:15;;;;;;;14.38;6.22;;;;;;;-10.87;65.47;102866.21;1868525;76;21090;-48
2023/01/08 05:16:43;;;;;;;6.20;2.80;;;;;;;-10.88;65.52;102869.54;1877146;76;21102;-48
2023/01/08 05:19:12;;;;;;;7.37;3.22;;;;;;;-10.88;65.52;102871.17;1877151;76;21152;-47
2023/01/08 05:21:41;;;;;;;1.02;0.80;;;;;;;-10.88;65.58;102869.89;1863614;76;21136;-47
2023/01/08 05:24:10;;;;;;;5.15;2.70;;;;;;;-10.90;65.59;102871.07;1845870;76;21125;-50
2023/01/08 05:26:39;;;;;;;14.98;6.22;;;;;;;-10.85;65.56;102873.09;1845922;76;21069;-48
2023/01/08 05:29:07;;;;;;;4.05;2.45;;;;;;;-10.83;65.61;102876.66;1845553;78;21211;-51
2023/01/08 05:31:36;;;;;;;7.83;1.92;;;;;;;-10.78;65.60;102885.56;1845520;78;21061;-51
2023/01/08 05:34:05;;;;;;;6.45;3.65;;;;;;;-10.73;65.61;102884.30;1845602;78;21067;-49
2023/01/08 05:36:34;;;;;;;6.72;2.85;;;;;;;-10.66;65.60;102894.18;1847527;76;21046;-47
2023/01/08 05:39:02;;;;;;;4.33;1.55;;;;;;;-10.55;65.54;102888.34;1845526;78;21014;-48
2023/01/08 05:41:32;;;;;;;21.48;6.75;;;;;;;-10.47;65.45;102886.76;1845664;78;21061;-48
2023/01/08 05:44:01;;;;;;;9.85;5.33;;;;;;;-10.46;65.37;102888.16;1873413;76;21119;-48
2023/01/08 05:46:30;;;;;;;18.70;5.37;;;;;;;-10.43;65.35;102882.45;1880178;75;21111;-53
2023/01/08 05:48:59;;;;;;;5.75;3.20;;;;;;;-10.39;65.30;102890.84;1877939;76;21053;-49
2023/01/08 05:51:28;;;;;;;6.67;3.15;;;;;;;-10.38;65.34;102888.78;1877951;76;21072;-48
2023/01/08 05:53:56;;;;;;;5.05;1.92;;;;;;;-10.24;65.37;102892.02;1899135;75;21054;-48
2023/01/08 05:56:25;;;;;;;8.68;2.70;;;;;;;-9.99;65.41;102893.98;1910462;75;21070;-48
2023/01/08 05:58:57;;;;;;;2.35;1.47;;;;;;;-9.60;65.26;102886.40;1910423;75;21014;-48
2023/01/08 06:01:25;;;;;;;11.12;3.75;;;;;;;-9.26;64.87;102888.97;1910503;75;21010;-51
2023/01/08 06:03:57;;;;;;;5.47;3.25;;;;;;;-8.97;64.43;102898.44;1908025;75;21138;-49
2023/01/08 06:06:26;;;;;;;17.25;6.78;;;;;;;-8.72;64.21;102891.34;1910617;75;21414;-49
2023/01/08 06:08:55;;;;;;;2.98;2.72;;;;;;;-8.43;63.79;102891.30;1910414;75;21010;-51
2023/01/08 06:11:23;;;;;;;5.95;1.25;;;;;;;-7.83;63.55;102888.77;1910436;75;21042;-52
2023/01/08 06:13:52;;;;;;;4.25;2.27;;;;;;;-7.33;62.77;102889.22;1902579;75;21108;-51
2023/01/08 06:16:21;;;;;;;5.08;2.60;;;;;;;-7.16;62.11;102895.48;1878066;76;21065;-48
2023/01/08 06:18:49;;;;;;;4.20;2.60;;;;;;;-7.05;61.89;102891.97;1878155;76;21029;-48
2023/01/08 06:21:18;;;;;;;16.45;6.28;;;;;;;-6.92;61.24;102888.56;1878057;76;21154;-48
2023/01/08 06:23:47;;;;;;;14.25;2.00;;;;;;;-6.62;60.93;102888.44;1878525;75;21127;-48
2023/01/08 06:26:15;;;;;;;6.72;3.30;;;;;;;-6.24;60.09;102882.73;1908623;75;21124;-48
2023/01/08 06:28:44;;;;;;;9.93;5.00;;;;;;;-5.69;58.73;102883.59;1910334;75;21088;-51
2023/01/08 06:31:13;;;;;;;4.75;3.70;;;;;;;-5.80;58.55;102876.92;1910427;75;21092;-52
2023/01/08 06:33:41;;;;;;;12.25;2.27;;;;;;;-6.17;58.73;102884.02;1910221;75;21018;-54
2023/01/08 06:36:10;;;;;;;8.23;2.90;;;;;;;-6.72;58.93;102884.77;1887652;75;21001;-54
2023/01/08 06:38:39;;;;;;;12.75;4.20;;;;;;;-7.24;59.36;102886.02;1878171;76;21029;-52
2023/01/08 06:41:10;;;;;;;6.10;3.12;;;;;;;-7.68;59.83;102885.52;1877928;76;21150;-53
2023/01/08 06:43:39;;;;;;;5.90;2.83;;;;;;;-8.21;60.32;102890.75;1883853;73;21057;-52
2023/01/08 06:46:13;;;;;;;1.30;1.20;;;;;;;-8.57;60.95;102888.63;1895288;74;21112;-50
2023/01/08 06:48:40;;;;;;;14.75;4.28;;;;;;;-8.83;61.43;102893.10;1894723;74;21122;-49
2023/01/08 06:51:09;;;;;;;0.72;0.72;;;;;;;-9.05;61.85;102890.61;1926319;74;21075;-50
2023/01/08 06:53:37;;;;;;;3.45;2.70;;;;;;;-9.18;62.20;102889.19;1912579;74;21339;-51
2023/01/08 06:56:09;;;;;;;6.65;4.65;;;;;;;-9.08;62.62;102891.64;1893050;76;21052;-50
2023/01/08 06:58:38;;;;;;;4.70;4.28;;;;;;;-8.32;62.96;102885.66;1893146;76;21041;-50
2023/01/08 07:01:09;;;;;;;2.62;2.17;;;;;;;-6.86;61.73;102881.31;1893209;76;20997;-49
2023/01/08 07:03:37;;;;;;;1.87;1.75;;;;;;;-6.47;60.20;102875.73;1896207;74;21126;-52
2023/01/08 07:06:07;;;;;;;5.10;2.08;;;;;;;-6.78;59.64;102879.25;1926039;74;21097;-55
2023/01/08 07:08:35;;;;;;;9.30;3.87;;;;;;;-6.12;59.46;102873.63;1926314;74;21013;-55
2023/01/08 07:11:04;;;;;;;4.33;2.67;;;;;;;-5.73;58.43;102874.35;1906381;74;21091;-54
2023/01/08 07:13:33;;;;;;;15.10;3.40;;;;;;;-5.98;57.94;102870.27;1893289;76;20993;-55
2023/01/08 07:16:10;;;;;;;6.17;3.37;;;;;;;-6.51;58.05;102881.45;1894054;74;21026;-55
2023/01/08 07:18:39;;;;;;;8.93;2.58;;;;;;;-6.93;58.50;102889.73;1893009;76;21017;-56
2023/01/08 07:21:08;;;;;;;5.17;2.42;;;;;;;-7.26;59.05;102884.14;1893091;76;21076;-53
2023/01/08 07:23:37;;;;;;;4.65;2.50;;;;;;;-7.45;59.58;102878.13;1893285;76;21545;-53
2023/01/08 07:26:07;;;;;;;3.35;2.72;;;;;;;-7.38;59.62;102888.92;1895248;74;21041;-53
2023/01/08 07:28:35;;;;;;;9.00;2.10;;;;;;;-7.76;59.58;102881.15;1893072;76;21558;-56
2023/01/08 07:31:06;;;;;;;20.25;6.47;;;;;;;-7.88;60.07;102882.44;1893232;76;21460;-54
2023/01/08 07:33:35;;;;;;;3.50;1.57;;;;;;;-7.95;60.23;102886.61;1893115;76;21493;-51
2023/01/08 07:36:04;;;;;;;10.88;3.47;;;;;;;-7.97;60.38;102886.53;1895261;74;21542;-49
2023/01/08 07:38:33;;;;;;;9.93;2.72;;;;;;;-7.79;60.67;102889.47;1893204;76;21024;-51
2023/01/08 07:41:02;;;;;;;13.80;4.85;;;;;;;-7.45;60.24;102888.38;1893349;76;21467;-52
2023/01/08 07:43:31;;;;;;;12.85;6.00;;;;;;;-7.40;59.85;102884.06;1893060;76;21017;-50
2023/01/08 07:46:04;;;;;;;4.08;2.62;;;;;;;-7.02;60.02;102884.51;1895316;74;21119;-52
2023/01/08 07:48:33;;;;;;;10.03;4.33;;;;;;;-6.13;58.97;102881.73;1893235;76;21032;-53
2023/01/08 07:51:06;;;;;;;15.83;6.53;;;;;;;-6.06;58.41;102875.33;1893138;76;21009;-49
2023/01/08 07:53:36;;;;;;;7.92;3.08;;;;;;;-6.06;58.22;102867.63;1894195;74;21086;-54
2023/01/08 07:56:08;;;;;;;4.20;1.40;;;;;;;-6.02;58.13;102865.34;1892910;76;21455;-53
2023/01/08 07:58:37;;;;;;;4.05;2.00;;;;;;;-5.72;57.81;102863.27;1892835;75;21061;-49
2023/01/08 08:01:08;;;;;;;8.13;3.22;;;;;;;-5.66;57.60;102863.67;1893210;76;21016;-51
2023/01/08 08:03:39;;;;;;;16.00;5.15;;;;;;;-5.88;57.34;102861.05;1900360;74;21043;-53
2023/01/08 08:06:08;;;;;;;14.60;7.00;;;;;;;-5.23;57.52;102866.25;1926412;74;21014;-56
2023/01/08 08:08:37;;;;;;;8.05;3.58;;;;;;;-3.43;54.51;102852.25;1926352;74;21506;-57
2023/01/08 08:11:06;;;;;;;4.70;2.70;;;;;;;-2.94;53.27;102856.06;1926357;74;21200;-56
2023/01/08 08:13:34;;;;;;;8.43;2.77;;;;;;;-3.14;53.38;102858.50;1926368;74;21084;-56
2023/01/08 08:16:04;;;;;;;10.98;5.92;;;;;;;-3.52;54.28;102857.41;1924286;74;21026;-55
2023/01/08 08:18:33;;;;;;;5.00;2.30;;;;;;;-3.93;54.93;102863.81;1922259;74;21128;-55
2023/01/08 08:21:02;;;;;;;6.30;2.17;;;;;;;-4.16;55.30;102869.38;1924497;74;21010;-48
2023/01/08 08:23:31;;;;;;;4.33;1.72;;;;;;;-3.98;55.38;102870.39;1918178;74;21468;-49
2023/01/08 08:26:03;;;;;;;20.05;8.30;;;;;;;-3.35;54.07;102875.45;1918387;74;21105;-50
2023/01/08 08:28:31;;;;;;;3.87;2.98;;;;;;;-2.69;52.69;102869.79;1926264;74;21022;-48
2023/01/08 08:31:00;;;;;;;6.55;3.65;;;;;;;-2.20;51.91;102860.95;1926451;74;21027;-47
2023/01/08 08:33:29;;;;;;;10.18;3.10;;;;;;;-1.57;50.72;102865.14;1926332;74;21179;-55
2023/01/08 08:35:57;;;;;;;6.15;3.35;;;;;;;-1.41;50.26;102861.55;1923949;74;21189;-48
2023/01/08 08:38:26;;;;;;;7.55;4.47;;;;;;;-1.97;51.13;102853.88;1926320;74;21018;-49
2023/01/08 08:40:55;;;;;;;19.87;5.17;;;;;;;-2.51;51.95;102851.73;1926454;74;21429;-49
2023/01/08 08:43:24;;;;;;;5.00;1.60;;;;;;;-3.16;52.73;102852.39;1926415;74;21533;-50
2023/01/08 08:45:54;;;;;;;12.50;5.50;;;;;;;-3.73;53.41;102857.14;1913223;74;21086;-51
2023/01/08 08:48:24;;;;;;;5.22;2.42;;;;;;;-4.24;53.92;102848.38;1910456;75;21187;-48
2023/01/08 08:50:52;;;;;;;9.60;2.95;;;;;;;-4.59;54.12;102847.66;1910519;75;21014;-48
2023/01/08 08:53:21;;;;;;;4.37;1.52;;;;;;;-4.86;54.27;102846.58;1901337;75;21057;-49
2023/01/08 08:55:50;;;;;;;4.10;1.98;;;;;;;-5.00;54.69;102847.45;1878116;76;21018;-50
2023/01/08 08:58:19;;;;;;;11.12;4.25;;;;;;;-5.14;54.59;102843.69;1878167;76;21314;-48
2023/01/08 09:00:47;;;;;;;5.60;3.00;;;;;;;-5.25;54.83;102846.02;1878088;76;20990;-48
2023/01/08 09:03:17;;;;;;;10.72;2.58;;;;;;;-5.30;55.07;102849.98;1879420;75;21021;-49
2023/01/08 09:05:46;;;;;;;4.03;1.65;;;;;;;-5.26;55.27;102854.50;1878049;76;21456;-49
2023/01/08 09:08:14;;;;;;;6.37;2.52;;;;;;;-5.21;55.09;102844.52;1878043;76;21574;-49
2023/01/08 09:10:43;;;;;;;1.62;1.52;;;;;;;-4.82;55.00;102843.38;1878038;76;21037;-51
2023/01/08 09:13:12;;;;;;;3.62;1.37;;;;;;;-4.03;54.33;102843.52;1849000;76;21099;-49
2023/01/08 09:15:41;;;;;;;3.83;1.25;;;;;;;-3.47;53.34;102840.02;1879550;75;21064;-51
2023/01/08 09:18:10;;;;;;;4.85;2.80;;;;;;;-3.46;52.82;102840.52;1878082;76;21033;-53
2023/01/08 09:20:38;;;;;;;4.03;2.67;;;;;;;-3.70;52.19;102837.13;1878068;76;21025;-55
2023/01/08 09:23:07;;;;;;;6.03;1.90;;;;;;;-4.01;52.22;102836.77;1878085;76;21107;-55
2023/01/08 09:25:36;;;;;;;10.80;3.87;;;;;;;-4.28;52.36;102833.17;1898976;75;21023;-56
2023/01/08 09:28:07;;;;;;;5.78;2.05;;;;;;;-4.44;52.84;102825.78;1882046;75;21045;-51
2023/01/08 09:30:36;;;;;;;6.50;3.20;;;;;;;-4.39;53.32;102831.70;1878082;76;21095;-49
2023/01/08 09:33:05;;;;;;;5.40;3.45;;;;;;;-3.64;52.66;102819.83;1878308;76;21053;-51
2023/01/08 09:35:34;;;;;;;13.72;4.58;;;;;;;-3.19;51.68;102823.91;1886933;75;21511;-53
2023/01/08 09:38:03;;;;;;;1.77;1.67;;;;;;;-2.67;51.08;102815.67;1890875;75;21421;-54
2023/01/08 09:40:37;;;;;;;3.92;2.40;;;;;;;-2.25;50.62;102806.94;1887505;75;21023;-53
2023/01/08 09:43:10;;;;;;;1.80;1.70;;;;;;;-2.45;51.02;102814.64;1876836;75;21500;-56
2023/01/08 09:45:40;;;;;;;13.40;4.53;;;;;;;-2.94;50.70;102809.66;1892087;74;21045;-54
2023/01/08 09:48:14;;;;;;;3.40;1.87;;;;;;;-3.08;51.15;102803.84;1926374;74;21024;-56
2023/01/08 09:50:43;;;;;;;6.47;1.92;;;;;;;-3.24;51.80;102802.17;1926290;74;21464;-54
2023/01/08 09:53:18;;;;;;;9.15;4.50;;;;;;;-3.48;52.30;102798.35;1915228;74;21548;-54
2023/01/08 09:56:02;;;;;;;4.95;2.83;;;;;;;-3.80;52.33;102802.67;1893241;76;21075;-56
2023/01/08 09:58:39;;;;;;;9.75;3.77;;;;;;;-4.16;52.27;102798.22;1893338;76;21052;-56
2023/01/08 10:01:09;;;;;;;1.80;1.65;;;;;;;-4.35;52.48;102806.63;1892964;76;21116;-55
2023/01/08 10:03:47;;;;;;;3.05;1.77;;;;;;;-4.28;52.62;102799.73;1895389;74;21561;-52
2023/01/08 10:06:17;;;;;;;6.60;3.20;;;;;;;-4.33;52.17;102796.42;1893081;76;21033;-51
2023/01/08 10:08:46;;;;;;;6.25;2.62;;;;;;;-4.33;52.17;102796.42;1897676;74;21456;-54
2023/01/08 10:11:16;;;;;;;5.17;2.75;;;;;;;-4.30;52.00;102790.14;1907654;74;21563;-49
2023/01/08 10:13:56;;;;;;;3.80;1.72;;;;;;;-3.79;51.99;102787.73;1894091;74;21602;-51
2023/01/08 10:16:36;;;;;;;2.40;1.60;;;;;;;-3.67;51.28;102781.95;1893169;76;21090;-52
2023/01/08 10:19:05;;;;;;;7.33;2.83;;;;;;;-3.87;51.07;102779.61;1893119;76;21102;-48
2023/01/08 10:21:40;;;;;;;3.65;1.62;;;;;;;-3.98;51.27;102785.47;1893064;76;21095;-56
2023/01/08 10:24:09;;;;;;;9.08;3.92;;;;;;;-3.97;51.37;102774.35;1893622;74;21029;-55
2023/01/08 10:26:38;;;;;;;1.72;1.40;;;;;;;-4.16;51.13;102776.35;1893201;76;21077;-55
2023/01/08 10:29:10;;;;;;;5.37;2.40;;;;;;;-4.40;51.15;102772.05;1893178;76;21480;-54
2023/01/08 10:32:02;;;;;;;5.58;2.65;;;;;;;-4.57;51.29;102780.53;1903603;74;21084;-55
2023/01/08 10:34:46;;;;;;;2.33;1.25;;;;;;;-4.72;51.50;102784.00;1919013;73;21049;-56
2023/01/08 10:37:32;;;;;;;5.35;1.90;;;;;;;-4.69;52.00;102783.28;1924064;74;21456;-53
2023/01/08 10:40:04;;;;;;;7.80;3.37;;;;;;;-4.68;52.26;102792.37;1924087;74;21099;-54
2023/01/08 10:42:36;;;;;;;7.42;2.95;;;;;;;-4.64;52.43;102782.27;1924134;74;21093;-55
2023/01/08 10:45:07;;;;;;;10.78;3.17;;;;;;;-4.64;52.43;102782.27;1923991;74;21016;-55
2023/01/08 10:47:38;;;;;;;9.20;2.77;;;;;;;-4.70;52.52;102787.95;1925589;72;21604;-52
2023/01/08 10:50:10;;;;;;;1.85;1.25;;;;;;;-4.68;52.37;102794.06;1912679;74;21134;-55
2023/01/08 10:52:39;;;;;;;6.33;2.85;;;;;;;-4.83;52.08;102783.80;1894533;72;21021;-50
2023/01/08 10:55:19;;;;;;;5.58;2.60;;;;;;;-4.90;51.95;102789.39;1926153;74;21092;-57
2023/01/08 10:57:57;;;;;;;8.88;3.62;;;;;;;-4.94;52.04;102788.70;1904096;74;21526;-50
2023/01/08 11:00:34;;;;;;;7.37;3.83;;;;;;;-4.96;51.64;102788.64;1902402;74;21091;-57
2023/01/08 11:03:09;;;;;;;2.87;1.90;;;;;;;-4.90;51.42;102794.53;1899635;74;21009;-52
2023/01/08 11:05:41;;;;;;;4.45;2.60;;;;;;;-4.91;51.00;102787.60;1916157;73;21159;-55
2023/01/08 11:08:19;;;;;;;10.03;3.50;;;;;;;-4.48;50.87;102789.63;1906960;74;21073;-51
2023/01/08 11:10:59;;;;;;;6.10;2.90;;;;;;;-3.90;50.06;102779.02;1916475;74;21093;-48
2023/01/08 11:13:29;;;;;;;7.40;2.62;;;;;;;-3.37;49.18;102776.59;1896853;74;21127;-49
2023/01/08 11:16:09;;;;;;;8.40;3.02;;;;;;;-3.09;48.29;102779.27;1893016;76;21025;-52
2023/01/08 11:18:43;;;;;;;9.40;3.42;;;;;;;-3.03;47.49;102779.56;1908168;74;21099;-51
2023/01/08 11:21:21;;;;;;;15.83;4.55;;;;;;;-3.51;47.63;102778.04;1892750;75;21106;-50
2023/01/08 11:24:04;;;;;;;3.05;2.50;;;;;;;-3.63;48.31;102777.43;1893030;76;21017;-52
2023/01/08 11:26:36;;;;;;;6.37;2.62;;;;;;;-2.84;47.40;102762.01;1893060;75;21021;-57
2023/01/08 11:29:37;;;;;;;4.15;2.60;;;;;;;-2.71;46.95;102768.26;1895320;74;21032;-56
2023/01/08 11:32:21;;;;;;;9.53;3.47;;;;;;;-3.04;47.38;102771.34;1875054;76;21075;-55
2023/01/08 11:35:23;;;;;;;5.70;2.90;;;;;;;-2.96;47.19;102773.91;1873650;76;21019;-55
2023/01/08 11:37:58;;;;;;;2.92;2.50;;;;;;;-3.23;46.49;102770.84;1875352;75;21051;-55
2023/01/08 11:40:33;;;;;;;3.50;1.55;;;;;;;-3.88;46.97;102763.67;1875494;75;21023;-49